createdAt,value
2018-02-27T00:00:08.373Z,70.29
2018-02-27T00:01:08.071Z,70.29
2018-02-27T00:02:08.052Z,69.91
2018-02-27T00:03:07.787Z,70.01
2018-02-27T00:04:08.017Z,69.91
2018-02-27T00:05:08.241Z,70.01
2018-02-27T00:06:07.729Z,69.72
2018-02-27T00:07:07.977Z,70.29
2018-02-27T00:08:07.943Z,70.01
2018-02-27T00:09:07.685Z,70.29
2018-02-27T00:10:07.729Z,70.01
2018-02-27T00:11:07.902Z,70.19
2018-02-27T00:12:07.890Z,69.82
2018-02-27T00:13:07.603Z,70.1
2018-02-27T00:14:07.869Z,69.72
2018-02-27T00:15:07.819Z,69.91
2018-02-27T00:16:07.800Z,70.19
2018-02-27T00:17:07.791Z,70.76
2018-02-27T00:18:07.765Z,70.95
2018-02-27T00:19:07.498Z,70.57
2018-02-27T00:20:07.734Z,70.19
2018-02-27T00:21:07.721Z,70.1
2018-02-27T00:22:07.440Z,69.91
2018-02-27T00:23:07.850Z,70.01
2018-02-27T00:24:07.404Z,69.91
2018-02-27T00:25:07.708Z,70.38
2018-02-27T00:26:07.370Z,70.67
2018-02-27T00:27:07.614Z,70.48
2018-02-27T00:28:07.339Z,70.86
2018-02-27T00:29:07.376Z,70.57
2018-02-27T00:30:07.593Z,70.76
2018-02-27T00:31:07.532Z,71.04
2018-02-27T00:32:07.515Z,70.76
2018-02-27T00:33:07.496Z,70.76
2018-02-27T00:34:07.478Z,70.76
2018-02-27T00:35:07.208Z,70.86
2018-02-27T00:36:07.442Z,71.14
2018-02-27T00:37:07.424Z,71.51
2018-02-27T00:38:07.405Z,70.76
2018-02-27T00:39:07.391Z,70.95
2018-02-27T00:40:07.373Z,70.01
2018-02-27T00:41:07.104Z,70.38
2018-02-27T00:42:07.084Z,70.29
2018-02-27T00:43:07.317Z,70.19
2018-02-27T00:44:07.789Z,70.19
2018-02-27T00:45:07.632Z,70.38
2018-02-27T00:46:07.267Z,70.76
2018-02-27T00:47:07.247Z,71.14
2018-02-27T00:48:07.232Z,70.95
2018-02-27T00:49:07.210Z,71.23
2018-02-27T00:50:06.937Z,71.23
2018-02-27T00:51:06.929Z,70.86
2018-02-27T00:52:07.155Z,70.86
2018-02-27T00:53:06.881Z,70.95
2018-02-27T00:54:07.120Z,70.48
2018-02-27T00:55:07.099Z,71.33
2018-02-27T00:56:07.081Z,71.23
2018-02-27T00:57:07.068Z,70.86
2018-02-27T00:58:07.055Z,70.76
2018-02-27T00:59:07.033Z,71.04
2018-02-27T01:00:07.018Z,71.51
2018-02-27T01:01:06.743Z,71.98
2018-02-27T01:02:06.979Z,71.23
2018-02-27T01:03:06.966Z,71.98
2018-02-27T01:04:06.938Z,72.17
2018-02-27T01:05:06.930Z,72.17
2018-02-27T01:06:06.902Z,72.92
2018-02-27T01:07:06.889Z,72.45
2018-02-27T01:08:06.870Z,71.98
2018-02-27T01:09:06.850Z,71.8
2018-02-27T01:10:06.575Z,71.42
2018-02-27T01:11:06.815Z,71.51
2018-02-27T01:12:06.796Z,71.89
2018-02-27T01:13:06.789Z,71.7
2018-02-27T01:14:06.510Z,71.23
2018-02-27T01:15:06.744Z,71.23
2018-02-27T01:16:06.726Z,71.61
2018-02-27T01:17:06.455Z,71.8
2018-02-27T01:18:06.685Z,71.33
2018-02-27T01:19:06.420Z,71.98
2018-02-27T01:20:06.654Z,72.36
2018-02-27T01:21:06.378Z,72.83
2018-02-27T01:22:09.723Z,73.11
2018-02-27T01:23:06.593Z,73.3
2018-02-27T01:24:06.322Z,72.64
2018-02-27T01:25:06.565Z,72.74
2018-02-27T01:26:06.539Z,73.11
2018-02-27T01:27:06.525Z,73.02
2018-02-27T01:28:06.504Z,73.21
2018-02-27T01:29:06.483Z,73.58
2018-02-27T01:30:06.478Z,74.53
2018-02-27T01:31:06.453Z,74.34
2018-02-27T01:32:06.437Z,74.15
2018-02-27T01:33:06.418Z,73.49
2018-02-27T01:34:06.410Z,73.68
2018-02-27T01:35:06.375Z,73.21
2018-02-27T01:36:06.353Z,72.83
2018-02-27T01:37:06.338Z,73.02
2018-02-27T01:38:06.325Z,72.83
2018-02-27T01:39:06.301Z,72.83
2018-02-27T01:40:06.476Z,73.02
2018-02-27T01:41:06.262Z,73.3
2018-02-27T01:42:06.001Z,73.68
2018-02-27T01:43:06.227Z,73.3
2018-02-27T01:44:06.222Z,72.74
2018-02-27T01:45:06.201Z,72.55
2018-02-27T01:46:06.178Z,73.02
2018-02-27T01:47:06.168Z,72.92
2018-02-27T01:48:06.143Z,73.39
2018-02-27T01:49:05.865Z,73.58
2018-02-27T01:50:06.105Z,73.11
2018-02-27T01:51:06.095Z,73.49
2018-02-27T01:52:06.067Z,73.49
2018-02-27T01:53:06.052Z,73.11
2018-02-27T01:54:06.038Z,73.21
2018-02-27T01:55:05.754Z,73.49
2018-02-27T01:56:05.995Z,73.58
2018-02-27T01:57:05.974Z,73.77
2018-02-27T01:58:05.954Z,73.77
2018-02-27T01:59:05.681Z,73.68
2018-02-27T02:00:05.920Z,73.96
2018-02-27T02:01:05.907Z,73.77
2018-02-27T02:02:05.629Z,74.15
2018-02-27T02:03:05.625Z,74.05
2018-02-27T02:04:05.847Z,73.87
2018-02-27T02:05:05.573Z,73.87
2018-02-27T02:06:05.809Z,73.77
2018-02-27T02:07:05.792Z,74.05
2018-02-27T02:08:05.775Z,74.34
2018-02-27T02:09:05.499Z,74.81
2018-02-27T02:10:05.745Z,74.53
2018-02-27T02:11:05.718Z,74.71
2018-02-27T02:12:05.699Z,74.43
2018-02-27T02:13:05.682Z,74.53
2018-02-27T02:14:05.666Z,74.53
2018-02-27T02:15:05.652Z,74.81
2018-02-27T02:16:05.373Z,74.24
2018-02-27T02:17:05.612Z,74.05
2018-02-27T02:18:05.339Z,74.24
2018-02-27T02:19:05.570Z,74.24
2018-02-27T02:20:05.298Z,74.43
2018-02-27T02:21:05.542Z,74.24
2018-02-27T02:22:05.516Z,73.87
2018-02-27T02:23:10.049Z,74.34
2018-02-27T02:24:05.493Z,73.96
2018-02-27T02:25:05.469Z,73.87
2018-02-27T02:26:05.189Z,74.05
2018-02-27T02:27:05.188Z,73.49
2018-02-27T02:28:05.154Z,74.24
2018-02-27T02:29:05.396Z,74.15
2018-02-27T02:30:05.121Z,74.71
2018-02-27T02:31:05.105Z,74.62
2018-02-27T02:32:05.338Z,75.09
2018-02-27T02:33:05.064Z,75.56
2018-02-27T02:34:05.048Z,75.56
2018-02-27T02:35:05.284Z,75.28
2018-02-27T02:36:05.013Z,75.09
2018-02-27T02:37:05.251Z,74.81
2018-02-27T02:38:05.314Z,74.62
2018-02-27T02:39:05.208Z,74.81
2018-02-27T02:40:05.190Z,74.43
2018-02-27T02:41:04.916Z,75.09
2018-02-27T02:42:05.150Z,74.24
2018-02-27T02:43:04.881Z,74.81
2018-02-27T02:44:05.121Z,74.81
2018-02-27T02:45:04.846Z,73.87
2018-02-27T02:46:04.828Z,74.05
2018-02-27T02:47:05.062Z,74.34
2018-02-27T02:48:05.039Z,74.05
2018-02-27T02:49:05.026Z,74.34
2018-02-27T02:50:05.032Z,74.71
2018-02-27T02:51:05.023Z,74.71
2018-02-27T02:52:04.967Z,74.81
2018-02-27T02:53:04.954Z,74.62
2018-02-27T02:54:04.932Z,74.81
2018-02-27T02:55:04.660Z,74.53
2018-02-27T02:56:04.896Z,75
2018-02-27T02:57:04.877Z,74.71
2018-02-27T02:58:04.856Z,75.09
2018-02-27T02:59:04.838Z,74.53
2018-02-27T03:00:04.829Z,74.43
2018-02-27T03:01:04.802Z,74.71
2018-02-27T03:02:04.784Z,74.34
2018-02-27T03:03:04.767Z,74.15
2018-02-27T03:04:04.494Z,73.77
2018-02-27T03:05:04.729Z,73.3
2018-02-27T03:06:04.711Z,73.11
2018-02-27T03:07:04.700Z,73.68
2018-02-27T03:08:04.674Z,74.05
2018-02-27T03:09:04.654Z,74.24
2018-02-27T03:10:04.390Z,74.05
2018-02-27T03:11:04.623Z,73.58
2018-02-27T03:12:04.597Z,73.21
2018-02-27T03:13:04.590Z,73.11
2018-02-27T03:14:04.567Z,73.68
2018-02-27T03:15:04.548Z,73.77
2018-02-27T03:16:04.275Z,74.05
2018-02-27T03:17:04.516Z,73.77
2018-02-27T03:18:04.508Z,73.3
2018-02-27T03:19:04.215Z,72.83
2018-02-27T03:20:04.452Z,73.58
2018-02-27T03:21:04.448Z,73.68
2018-02-27T03:22:04.414Z,73.87
2018-02-27T03:23:04.395Z,74.24
2018-02-27T03:24:04.629Z,74.15
2018-02-27T03:25:04.361Z,73.68
2018-02-27T03:26:04.342Z,73.58
2018-02-27T03:27:04.319Z,73.58
2018-02-27T03:28:04.317Z,73.96
2018-02-27T03:29:04.304Z,74.05
2018-02-27T03:30:04.013Z,73.77
2018-02-27T03:31:04.262Z,73.87
2018-02-27T03:32:04.235Z,74.34
2018-02-27T03:33:04.208Z,74.05
2018-02-27T03:34:03.943Z,73.87
2018-02-27T03:35:04.173Z,73.68
2018-02-27T03:36:04.154Z,73.77
2018-02-27T03:37:03.882Z,73.77
2018-02-27T03:38:03.869Z,73.87
2018-02-27T03:39:04.204Z,73.77
2018-02-27T03:40:03.897Z,74.05
2018-02-27T03:41:04.063Z,73.49
2018-02-27T03:42:04.052Z,73.58
2018-02-27T03:43:04.022Z,73.49
2018-02-27T03:44:04.008Z,73.3
2018-02-27T03:45:03.987Z,73.3
2018-02-27T03:46:03.969Z,73.87
2018-02-27T03:47:03.950Z,73.96
2018-02-27T03:48:03.930Z,73.58
2018-02-27T03:49:03.910Z,73.68
2018-02-27T03:50:03.908Z,73.77
2018-02-27T03:51:03.878Z,73.02
2018-02-27T03:52:03.859Z,73.11
2018-02-27T03:53:03.843Z,73.68
2018-02-27T03:54:05.368Z,73.77
2018-02-27T03:55:03.798Z,73.68
2018-02-27T03:56:03.788Z,73.96
2018-02-27T03:57:03.764Z,74.15
2018-02-27T03:58:03.752Z,73.77
2018-02-27T03:59:03.735Z,73.77
2018-02-27T04:00:03.708Z,73.58
2018-02-27T04:01:03.691Z,73.87
2018-02-27T04:02:03.748Z,73.39
2018-02-27T04:03:03.648Z,73.49
2018-02-27T04:04:03.637Z,73.68
2018-02-27T04:05:03.359Z,73.68
2018-02-27T04:06:03.595Z,74.24
2018-02-27T04:07:03.326Z,74.34
2018-02-27T04:08:03.559Z,74.43
2018-02-27T04:09:03.542Z,74.71
2018-02-27T04:10:03.519Z,75.28
2018-02-27T04:11:03.507Z,74.71
2018-02-27T04:12:03.225Z,73.68
2018-02-27T04:13:03.469Z,73.68
2018-02-27T04:14:03.456Z,73.11
2018-02-27T04:15:03.433Z,72.55
2018-02-27T04:16:03.159Z,72.92
2018-02-27T04:17:03.140Z,72.55
2018-02-27T04:18:03.371Z,73.68
2018-02-27T04:19:03.098Z,73.96
2018-02-27T04:20:03.329Z,74.71
2018-02-27T04:21:03.310Z,74.24
2018-02-27T04:22:03.293Z,73.68
2018-02-27T04:23:03.275Z,73.96
2018-02-27T04:24:03.252Z,73.77
2018-02-27T04:25:03.234Z,73.11
2018-02-27T04:26:03.228Z,74.15
2018-02-27T04:27:03.205Z,74.71
2018-02-27T04:28:02.925Z,75.09
2018-02-27T04:29:03.166Z,74.71
2018-02-27T04:30:03.147Z,74.62
2018-02-27T04:31:02.868Z,75
2018-02-27T04:32:03.102Z,75.19
2018-02-27T04:33:03.088Z,76.79
2018-02-27T04:34:03.081Z,76.6
2018-02-27T04:35:03.050Z,76.13
2018-02-27T04:36:03.029Z,75.19
2018-02-27T04:37:03.025Z,74.71
2018-02-27T04:38:03.001Z,73.87
2018-02-27T04:39:02.726Z,74.71
2018-02-27T04:40:02.967Z,74.71
2018-02-27T04:41:02.946Z,75.38
2018-02-27T04:42:02.669Z,75.09
2018-02-27T04:43:02.912Z,74.81
2018-02-27T04:44:02.895Z,75
2018-02-27T04:45:02.866Z,75.43
2018-02-27T04:46:02.852Z,75.38
2018-02-27T04:47:02.580Z,75.09
2018-02-27T04:48:02.808Z,74.81
2018-02-27T04:49:02.850Z,74.58
2018-02-27T04:50:02.514Z,75.24
2018-02-27T04:51:02.492Z,75.28
2018-02-27T04:52:02.736Z,74.68
2018-02-27T04:53:02.714Z,75.24
2018-02-27T04:54:02.703Z,74.87
2018-02-27T04:55:02.714Z,74.49
2018-02-27T04:56:02.664Z,74.49
2018-02-27T04:57:02.648Z,75.24
2018-02-27T04:58:02.625Z,75.43
2018-02-27T04:59:02.605Z,76.18
2018-02-27T05:00:02.586Z,75.34
2018-02-27T05:01:02.559Z,75.81
2018-02-27T05:02:02.284Z,75.9
2018-02-27T05:03:02.533Z,75.81
2018-02-27T05:04:02.498Z,76.09
2018-02-27T05:05:02.234Z,76.13
2018-02-27T05:06:02.208Z,76.41
2018-02-27T05:07:02.189Z,75.94
2018-02-27T05:08:02.427Z,75.75
2018-02-27T05:09:02.406Z,75.05
2018-02-27T05:10:02.447Z,74.87
2018-02-27T05:11:02.377Z,74.96
2018-02-27T05:12:02.346Z,75.15
2018-02-27T05:13:02.333Z,75.81
2018-02-27T05:14:02.064Z,75.99
2018-02-27T05:15:02.291Z,76.37
2018-02-27T05:16:02.274Z,76.46
2018-02-27T05:17:02.250Z,76.28
2018-02-27T05:18:02.239Z,75.9
2018-02-27T05:19:02.218Z,75.52
2018-02-27T05:20:02.201Z,75.71
2018-02-27T05:21:02.179Z,75.71
2018-02-27T05:22:02.165Z,76.56
2018-02-27T05:23:02.142Z,76.37
2018-02-27T05:24:02.127Z,76.28
2018-02-27T05:25:02.111Z,75.62
2018-02-27T05:26:02.351Z,75.9
2018-02-27T05:27:01.813Z,74.96
2018-02-27T05:28:01.790Z,75.52
2018-02-27T05:29:02.025Z,75.9
2018-02-27T05:30:02.012Z,75.62
2018-02-27T05:31:01.993Z,76.56
2018-02-27T05:32:01.976Z,76.65
2018-02-27T05:33:01.958Z,76.65
2018-02-27T05:34:01.929Z,76.28
2018-02-27T05:35:01.673Z,76.37
2018-02-27T05:36:01.648Z,76.09
2018-02-27T05:37:01.875Z,76.18
2018-02-27T05:38:01.851Z,76.56
2018-02-27T05:39:01.836Z,76.65
2018-02-27T05:40:01.817Z,76.37
2018-02-27T05:41:01.796Z,76.18
2018-02-27T05:42:01.777Z,76.28
2018-02-27T05:43:01.758Z,77.6
2018-02-27T05:44:01.742Z,78.92
2018-02-27T05:45:01.473Z,78.35
2018-02-27T05:46:01.705Z,77.69
2018-02-27T05:47:01.683Z,77.6
2018-02-27T05:48:01.662Z,76.94
2018-02-27T05:49:01.641Z,77.41
2018-02-27T05:50:01.627Z,77.69
2018-02-27T05:51:01.603Z,76.46
2018-02-27T05:52:01.331Z,76.09
2018-02-27T05:53:01.570Z,76.37
2018-02-27T05:54:01.553Z,75.81
2018-02-27T05:55:01.539Z,76.28
2018-02-27T05:56:01.510Z,76.65
2018-02-27T05:57:01.503Z,76.84
2018-02-27T05:58:01.219Z,76.75
2018-02-27T05:59:01.452Z,76.65
2018-02-27T06:00:01.445Z,76.75
2018-02-27T06:01:01.411Z,77.12
2018-02-27T06:02:01.404Z,76.37
2018-02-27T06:03:01.372Z,75.62
2018-02-27T06:04:01.353Z,75.62
2018-02-27T06:05:01.080Z,75.62
2018-02-27T06:06:01.321Z,75.62
2018-02-27T06:07:01.294Z,75.9
2018-02-27T06:08:01.280Z,76.94
2018-02-27T06:09:01.263Z,76.94
2018-02-27T06:10:01.243Z,76.75
2018-02-27T06:11:00.967Z,76.37
2018-02-27T06:12:01.258Z,75.81
2018-02-27T06:13:01.189Z,75.71
2018-02-27T06:14:00.906Z,75.9
2018-02-27T06:15:01.145Z,75.9
2018-02-27T06:16:01.143Z,75.62
2018-02-27T06:17:01.104Z,75.99
2018-02-27T06:18:01.089Z,76.46
2018-02-27T06:19:01.071Z,76.84
2018-02-27T06:20:00.803Z,76.75
2018-02-27T06:21:01.027Z,76.84
2018-02-27T06:22:01.009Z,76.09
2018-02-27T06:23:00.990Z,75.9
2018-02-27T06:24:00.734Z,75.9
2018-02-27T06:25:00.950Z,75.71
2018-02-27T06:26:00.930Z,75.71
2018-02-27T06:27:02.047Z,75.71
2018-02-27T06:28:00.891Z,75.71
2018-02-27T06:29:00.875Z,76.09
2018-02-27T06:30:00.857Z,77.31
2018-02-27T06:31:00.836Z,78.63
2018-02-27T06:32:00.566Z,76.89
2018-02-27T06:33:00.804Z,75.38
2018-02-27T06:34:00.545Z,75.38
2018-02-27T06:35:00.758Z,75.24
2018-02-27T06:36:00.744Z,74.87
2018-02-27T06:37:00.471Z,75.81
2018-02-27T06:38:00.707Z,76.09
2018-02-27T06:39:00.688Z,76.28
2018-02-27T06:40:00.666Z,76.7
2018-02-27T06:41:00.403Z,75.66
2018-02-27T06:42:00.634Z,75.66
2018-02-27T06:43:00.621Z,74.71
2018-02-27T06:44:00.610Z,74.43
2018-02-27T06:45:00.576Z,73.83
2018-02-27T06:46:00.558Z,74.24
2018-02-27T06:47:00.548Z,74.43
2018-02-27T06:48:00.520Z,73.77
2018-02-27T06:49:00.247Z,74.53
2018-02-27T06:50:00.484Z,75.09
2018-02-27T06:51:00.457Z,75.28
2018-02-27T06:52:00.439Z,77.07
2018-02-27T06:53:00.181Z,77.55
2018-02-27T06:54:00.409Z,76.89
2018-02-27T06:55:00.384Z,74.62
2018-02-27T06:56:00.383Z,73.68
2018-02-27T06:57:00.354Z,73.11
2018-02-27T06:58:00.334Z,74.34
2018-02-27T06:59:00.314Z,76.13
2018-02-27T07:00:00.301Z,76.13
2018-02-27T07:01:00.269Z,76.41
2018-02-27T07:01:59.999Z,75.09
2018-02-27T07:03:00.248Z,73.11
2018-02-27T07:04:00.224Z,72.83
2018-02-27T07:04:59.952Z,75.66
2018-02-27T07:06:00.186Z,78.67
2018-02-27T07:06:59.908Z,79.99
2018-02-27T07:08:00.146Z,77.17
2018-02-27T07:08:59.871Z,74.81
2018-02-27T07:10:00.113Z,72.64
2018-02-27T07:11:00.091Z,72.36
2018-02-27T07:12:00.070Z,73.11
2018-02-27T07:13:00.102Z,74.15
2018-02-27T07:14:00.035Z,74.24
2018-02-27T07:15:00.016Z,72.74
2018-02-27T07:16:00.001Z,71.98
2018-02-27T07:16:59.726Z,72.92
2018-02-27T07:17:59.959Z,72.64
2018-02-27T07:18:59.941Z,73.21
2018-02-27T07:19:59.679Z,74.24
2018-02-27T07:20:59.914Z,75.47
2018-02-27T07:21:59.894Z,74.81
2018-02-27T07:22:59.871Z,73.39
2018-02-27T07:23:59.851Z,72.17
2018-02-27T07:24:59.839Z,72.17
2018-02-27T07:25:59.821Z,71.33
2018-02-27T07:26:59.805Z,71.33
2018-02-27T07:28:01.684Z,72.27
2018-02-27T07:28:59.765Z,71.98
2018-02-27T07:29:59.746Z,71.98
2018-02-27T07:30:59.733Z,71.89
2018-02-27T07:31:59.462Z,71.33
2018-02-27T07:32:59.440Z,71.33
2018-02-27T07:33:59.433Z,71.51
2018-02-27T07:34:59.423Z,70.86
2018-02-27T07:35:59.638Z,71.33
2018-02-27T07:36:59.646Z,70.48
2018-02-27T07:37:59.601Z,69.82
2018-02-27T07:38:59.585Z,69.06
2018-02-27T07:39:59.320Z,68.4
2018-02-27T07:40:59.556Z,68.59
2018-02-27T07:41:59.532Z,68.15
2018-02-27T07:43:03.470Z,67.12
2018-02-27T07:43:59.515Z,66.08
2018-02-27T07:44:59.502Z,65.23
2018-02-27T07:45:59.211Z,65.14
2018-02-27T07:46:59.204Z,67.21
2018-02-27T07:47:59.181Z,66.55
2018-02-27T07:48:59.421Z,66.74
2018-02-27T07:49:59.403Z,68.12
2018-02-27T07:50:59.391Z,68.21
2018-02-27T07:51:59.368Z,68.12
2018-02-27T07:52:59.095Z,68.02
2018-02-27T07:53:59.336Z,67.65
2018-02-27T07:54:59.315Z,68.31
2018-02-27T07:55:59.306Z,68.59
2018-02-27T07:56:59.030Z,69.91
2018-02-27T07:57:59.266Z,69.53
2018-02-27T07:58:58.997Z,69.72
2018-02-27T07:59:58.979Z,69.25
2018-02-27T08:00:59.221Z,70.95
2018-02-27T08:01:58.947Z,73.21
2018-02-27T08:02:58.928Z,72.64
2018-02-27T08:03:58.941Z,71.89
2018-02-27T08:04:59.162Z,71.7
2018-02-27T08:05:58.890Z,72.27
2018-02-27T08:06:58.857Z,72.74
2018-02-27T08:07:59.094Z,72.45
2018-02-27T08:08:58.824Z,71.89
2018-02-27T08:09:59.065Z,71.7
2018-02-27T08:10:59.042Z,69.63
2018-02-27T08:11:59.025Z,69.16
2018-02-27T08:12:59.018Z,69.35
2018-02-27T08:14:00.648Z,70.01
2018-02-27T08:14:58.974Z,69.82
2018-02-27T08:15:58.956Z,69.72
2018-02-27T08:16:58.938Z,69.91
2018-02-27T08:17:58.924Z,69.91
2018-02-27T08:18:58.654Z,69.53
2018-02-27T08:19:58.898Z,71.14
2018-02-27T08:20:58.874Z,71.33
2018-02-27T08:21:58.901Z,71.14
2018-02-27T08:22:58.837Z,71.7
2018-02-27T08:23:58.824Z,71.61
2018-02-27T08:24:58.836Z,74.71
2018-02-27T08:25:58.568Z,75.19
2018-02-27T08:26:58.775Z,72.92
2018-02-27T08:27:58.500Z,71.23
2018-02-27T08:28:58.942Z,69.63
2018-02-27T08:29:58.729Z,70.1
2018-02-27T08:30:58.707Z,71.61
2018-02-27T08:31:58.709Z,71.23
2018-02-27T08:32:58.666Z,71.04
2018-02-27T08:33:58.395Z,70.29
2018-02-27T08:34:58.636Z,69.63
2018-02-27T08:35:58.613Z,69.25
2018-02-27T08:36:58.590Z,69.16
2018-02-27T08:37:58.578Z,68.68
2018-02-27T08:38:58.560Z,68.31
2018-02-27T08:39:58.297Z,68.5
2018-02-27T08:40:58.528Z,68.12
2018-02-27T08:41:58.506Z,68.68
2018-02-27T08:42:58.488Z,69.25
2018-02-27T08:43:58.472Z,69.44
2018-02-27T08:44:58.204Z,69.82
2018-02-27T08:45:58.444Z,68.68
2018-02-27T08:46:58.421Z,68.31
2018-02-27T08:47:58.149Z,67.36
2018-02-27T08:48:58.387Z,67.93
2018-02-27T08:49:58.383Z,68.02
2018-02-27T08:50:58.446Z,67.87
2018-02-27T08:51:58.085Z,67.12
2018-02-27T08:52:58.321Z,66.83
2018-02-27T08:53:58.311Z,66.17
2018-02-27T08:54:58.287Z,65.99
2018-02-27T08:55:58.274Z,65.7
2018-02-27T08:56:58.260Z,64.95
2018-02-27T08:57:58.242Z,64.58
2018-02-27T08:58:58.222Z,64.95
2018-02-27T08:59:58.239Z,64.67
2018-02-27T09:00:58.224Z,64.2
2018-02-27T09:01:57.923Z,63.82
2018-02-27T09:02:57.904Z,63.82
2018-02-27T09:03:58.143Z,64.39
2018-02-27T09:04:58.131Z,65.05
2018-02-27T09:05:57.871Z,64.95
2018-02-27T09:06:58.104Z,65.42
2018-02-27T09:07:58.079Z,65.52
2018-02-27T09:08:58.060Z,64.95
2018-02-27T09:09:58.061Z,64.67
2018-02-27T09:10:58.034Z,65.8
2018-02-27T09:11:58.013Z,65.42
2018-02-27T09:12:57.744Z,64.95
2018-02-27T09:13:57.738Z,65.01
2018-02-27T09:14:58.018Z,65.95
2018-02-27T09:15:57.951Z,66.05
2018-02-27T09:16:57.934Z,66.17
2018-02-27T09:17:57.920Z,66.74
2018-02-27T09:18:57.906Z,67.21
2018-02-27T09:19:57.636Z,66.36
2018-02-27T09:20:57.876Z,65.99
2018-02-27T09:21:57.858Z,65.05
2018-02-27T09:22:57.839Z,65.33
2018-02-27T09:23:57.843Z,64.67
2018-02-27T09:24:57.807Z,64.48
2018-02-27T09:25:57.792Z,64.39
2018-02-27T09:26:57.773Z,64.1
2018-02-27T09:27:57.760Z,64.73
2018-02-27T09:28:57.489Z,64.73
2018-02-27T09:29:58.471Z,64.76
2018-02-27T09:30:57.456Z,65.23
2018-02-27T09:31:57.693Z,65.23
2018-02-27T09:32:57.425Z,64.95
2018-02-27T09:33:57.663Z,64.29
2018-02-27T09:34:57.408Z,63.91
2018-02-27T09:35:57.374Z,64.01
2018-02-27T09:36:57.619Z,65.33
2018-02-27T09:37:57.594Z,64.67
2018-02-27T09:38:57.583Z,64.76
2018-02-27T09:39:57.572Z,65.23
2018-02-27T09:40:57.294Z,65.42
2018-02-27T09:41:57.532Z,66.33
2018-02-27T09:42:57.525Z,66.99
2018-02-27T09:43:57.514Z,67.18
2018-02-27T09:44:58.346Z,66.71
2018-02-27T09:45:57.529Z,66.14
2018-02-27T09:46:57.467Z,67.08
2018-02-27T09:47:57.183Z,67.02
2018-02-27T09:48:57.437Z,65.89
2018-02-27T09:49:57.157Z,64.95
2018-02-27T09:50:57.394Z,64.67
2018-02-27T09:51:57.372Z,64.67
2018-02-27T09:52:57.374Z,64.76
2018-02-27T09:53:57.354Z,64.1
2018-02-27T09:54:57.069Z,63.54
2018-02-27T09:55:57.061Z,63.82
2018-02-27T09:56:57.310Z,63.44
2018-02-27T09:57:57.293Z,63.54
2018-02-27T09:58:57.008Z,63.35
2018-02-27T09:59:57.001Z,63.25
2018-02-27T10:00:57.224Z,63.35
2018-02-27T10:01:57.209Z,63.54
2018-02-27T10:02:57.202Z,63.91
2018-02-27T10:03:56.925Z,63.35
2018-02-27T10:04:57.171Z,63.73
2018-02-27T10:05:57.152Z,63.25
2018-02-27T10:06:57.146Z,63.25
2018-02-27T10:07:57.114Z,63.35
2018-02-27T10:08:56.849Z,63.44
2018-02-27T10:09:57.097Z,63.16
2018-02-27T10:10:57.071Z,62.88
2018-02-27T10:11:56.801Z,63.35
2018-02-27T10:12:57.044Z,65.89
2018-02-27T10:13:57.025Z,68.15
2018-02-27T10:14:57.005Z,67.02
2018-02-27T10:15:58.259Z,65.61
2018-02-27T10:16:56.974Z,64.76
2018-02-27T10:17:56.962Z,64.01
2018-02-27T10:18:56.951Z,62.69
2018-02-27T10:19:56.929Z,62.31
2018-02-27T10:20:56.915Z,62.12
2018-02-27T10:21:56.644Z,62.03
2018-02-27T10:22:56.895Z,61.55
2018-02-27T10:23:56.880Z,61.55
2018-02-27T10:24:56.867Z,61.65
2018-02-27T10:25:56.580Z,61.46
2018-02-27T10:26:56.820Z,61.93
2018-02-27T10:56:56.981Z,59.8
2018-02-27T10:57:56.900Z,59.48
2018-02-27T10:58:56.880Z,59.67
2018-02-27T10:59:56.857Z,59.58
2018-02-27T11:00:56.837Z,60.14
2018-02-27T11:01:56.838Z,59.77
2018-02-27T11:02:56.802Z,59.58
2018-02-27T11:03:56.794Z,59.11
2018-02-27T11:04:56.518Z,59.48
2018-02-27T11:05:56.749Z,59.67
2018-02-27T11:06:56.731Z,59.3
2018-02-27T11:07:56.462Z,58.73
2018-02-27T11:08:56.708Z,58.85
2018-02-27T11:09:56.432Z,60.83
2018-02-27T11:10:56.670Z,60.36
2018-02-27T11:11:56.967Z,59.8
2018-02-27T11:12:56.634Z,60.74
2018-02-27T11:13:56.631Z,59.51
2018-02-27T11:14:56.605Z,58.38
2018-02-27T11:15:56.588Z,58.73
2018-02-27T11:16:56.632Z,58.35
2018-02-27T11:17:56.555Z,58.16
2018-02-27T11:18:56.544Z,58.26
2018-02-27T11:19:56.617Z,58.73
2018-02-27T11:20:56.511Z,59.2
2018-02-27T11:21:56.246Z,59.01
2018-02-27T11:22:56.482Z,59.67
2018-02-27T11:23:56.475Z,60.05
2018-02-27T11:24:56.196Z,59.48
2018-02-27T11:25:56.439Z,59.2
2018-02-27T11:26:56.479Z,59.58
2018-02-27T11:27:56.406Z,60.24
2018-02-27T11:28:56.388Z,59.95
2018-02-27T11:29:56.369Z,60.61
2018-02-27T11:30:56.362Z,59.58
2018-02-27T11:31:56.089Z,59.3
2018-02-27T11:32:56.068Z,61.36
2018-02-27T11:33:56.307Z,60.89
2018-02-27T11:34:56.301Z,59.2
2018-02-27T11:35:56.278Z,58.73
2018-02-27T11:36:56.265Z,58.54
2018-02-27T11:37:56.250Z,58.45
2018-02-27T11:38:56.238Z,58.73
2018-02-27T11:39:56.217Z,58.85
2018-02-27T11:40:56.210Z,58.19
2018-02-27T11:41:58.246Z,57.41
2018-02-27T11:42:55.923Z,57.78
2018-02-27T11:43:55.903Z,57.78
2018-02-27T11:44:56.143Z,57.97
2018-02-27T11:45:56.134Z,57.97
2018-02-27T11:46:56.112Z,58.45
2018-02-27T11:47:56.111Z,59.3
2018-02-27T11:48:56.176Z,58.82
2018-02-27T11:49:56.067Z,59.14
2018-02-27T11:50:56.054Z,59.61
2018-02-27T11:51:56.038Z,59.51
2018-02-27T11:52:56.029Z,58.57
2018-02-27T11:53:56.021Z,57.06
2018-02-27T11:54:55.996Z,56.49
2018-02-27T11:55:55.980Z,58.47
2018-02-27T11:56:55.967Z,58.1
2018-02-27T11:57:55.954Z,58.1
2018-02-27T11:58:55.934Z,56.96
2018-02-27T11:59:55.920Z,56.59
2018-02-27T12:00:55.655Z,57.15
2018-02-27T12:01:55.892Z,56.12
2018-02-27T12:02:55.876Z,58.47
2018-02-27T12:03:55.865Z,58.38
2018-02-27T12:04:55.848Z,57.25
2018-02-27T12:05:55.873Z,57.15
2018-02-27T12:06:55.816Z,56.59
2018-02-27T12:07:55.801Z,56.37
2018-02-27T12:08:55.531Z,56.65
2018-02-27T12:09:55.779Z,56.37
2018-02-27T12:10:55.762Z,56.46
2018-02-27T12:11:55.753Z,55.93
2018-02-27T12:12:55.476Z,55.62
2018-02-27T12:13:55.717Z,55.8
2018-02-27T12:14:55.716Z,55.65
2018-02-27T12:15:55.705Z,56.02
2018-02-27T12:16:55.412Z,57.81
2018-02-27T12:17:55.659Z,57.43
2018-02-27T12:18:55.636Z,57.43
2018-02-27T12:19:55.623Z,56.68
2018-02-27T12:20:55.619Z,55.55
2018-02-27T12:21:55.339Z,54.86
2018-02-27T12:22:55.334Z,54.77
2018-02-27T12:23:55.608Z,55.52
2018-02-27T12:24:55.555Z,55.52
2018-02-27T12:25:55.544Z,55.62
2018-02-27T12:26:55.516Z,54.96
2018-02-27T12:27:55.505Z,55.62
2018-02-27T12:28:55.485Z,55.71
2018-02-27T12:29:55.470Z,56.46
2018-02-27T12:30:55.455Z,57.12
2018-02-27T12:31:55.449Z,56.65
2018-02-27T12:32:55.175Z,56.02
2018-02-27T12:33:55.418Z,56.02
2018-02-27T12:34:55.404Z,56.3
2018-02-27T12:35:55.389Z,55.83
2018-02-27T12:36:55.365Z,54.61
2018-02-27T12:37:55.101Z,52.91
2018-02-27T12:38:55.096Z,52.34
2018-02-27T12:39:55.066Z,51.68
2018-02-27T12:40:55.312Z,51.12
2018-02-27T12:41:55.318Z,51.4
2018-02-27T12:42:55.277Z,51.24
2018-02-27T12:43:55.265Z,51.24
2018-02-27T12:44:54.996Z,51.24
2018-02-27T12:45:54.998Z,52.28
2018-02-27T12:46:55.224Z,53.13
2018-02-27T12:47:54.954Z,55.01
2018-02-27T12:48:55.195Z,56.05
2018-02-27T12:49:55.192Z,55.86
2018-02-27T12:50:54.918Z,54.26
2018-02-27T12:51:55.158Z,52.84
2018-02-27T12:52:55.197Z,51.99
2018-02-27T12:53:55.131Z,51.33
2018-02-27T12:54:54.857Z,51.4
2018-02-27T12:55:54.844Z,51.21
2018-02-27T12:56:55.098Z,52.44
2018-02-27T12:57:59.373Z,52.81
2018-02-27T12:58:55.060Z,52.62
2018-02-27T12:59:54.788Z,52.81
2018-02-27T13:00:55.034Z,52.53
2018-02-27T13:01:55.011Z,52.81
2018-02-27T13:02:55.003Z,52.44
2018-02-27T13:03:54.988Z,53.29
2018-02-27T13:04:54.981Z,53.47
2018-02-27T13:05:54.700Z,54.33
2018-02-27T13:06:54.948Z,54.42
2018-02-27T13:07:54.931Z,53.5
2018-02-27T13:08:54.917Z,52.84
2018-02-27T13:09:54.909Z,52.09
2018-02-27T13:10:54.891Z,51.99
2018-02-27T13:11:54.882Z,51.62
2018-02-27T13:12:54.615Z,51.33
2018-02-27T13:13:54.870Z,50.01
2018-02-27T13:14:54.576Z,49.44
2018-02-27T13:15:54.821Z,49.63
2018-02-27T13:16:54.809Z,50.01
2018-02-27T13:17:54.828Z,50.1
2018-02-27T13:18:54.788Z,50.58
2018-02-27T13:19:54.762Z,49.91
2018-02-27T13:20:54.756Z,50.2
2018-02-27T13:21:54.741Z,51.33
2018-02-27T13:22:54.737Z,53.85